createdAt,value
2023-02-06T00:01:48.450Z,99758.13
2023-02-06T00:04:15.642Z,99761.53
2023-02-06T00:06:43.450Z,99760.69
2023-02-06T00:09:11.108Z,99754.72
2023-02-06T00:11:38.528Z,99761.50
2023-02-06T00:14:05.657Z,99758.94
2023-02-06T00:16:34.541Z,99759.78
2023-02-06T00:19:01.989Z,99749.56
2023-02-06T00:21:29.894Z,99760.63
2023-02-06T00:24:00.364Z,99762.31
2023-02-06T00:26:28.253Z,99760.59
2023-02-06T00:28:54.969Z,99758.88
2023-02-06T00:31:21.974Z,99768.22
2023-02-06T00:33:49.120Z,99760.56
2023-02-06T00:36:15.905Z,99759.72
2023-02-06T00:38:42.660Z,99762.25
2023-02-06T00:41:09.475Z,99768.16
2023-02-06T00:43:37.590Z,99773.22
2023-02-06T00:46:04.486Z,99772.34
2023-02-06T00:48:31.210Z,99774.03
2023-02-06T00:50:58.018Z,99772.34
2023-02-06T00:53:24.805Z,99766.38
2023-02-06T00:55:51.563Z,99762.97
2023-02-06T00:58:18.383Z,99752.78
2023-02-06T01:00:45.366Z,99752.75
2023-02-06T01:03:12.327Z,99741.69
2023-02-06T01:05:39.260Z,99745.09
2023-02-06T01:08:06.060Z,99739.97
2023-02-06T01:10:33.154Z,99746.72
2023-02-06T01:13:00.259Z,99736.50
2023-02-06T01:15:27.416Z,99742.44
2023-02-06T01:17:54.150Z,99738.19
2023-02-06T01:20:21.736Z,99727.16
2023-02-06T01:22:48.708Z,99719.53
2023-02-06T01:25:15.448Z,99719.53
2023-02-06T01:27:42.201Z,99719.53
2023-02-06T01:30:10.956Z,99720.38
2023-02-06T01:32:39.718Z,99727.97
2023-02-06T01:35:09.027Z,99722.88
2023-02-06T01:37:36.741Z,99741.50
2023-02-06T01:40:06.494Z,99753.38
2023-02-06T01:42:37.779Z,99761.00
2023-02-06T01:45:26.341Z,99760.09
2023-02-06T01:48:03.106Z,99761.78
2023-02-06T01:50:33.141Z,99764.31
2023-02-06T01:53:01.587Z,99766.00
2023-02-06T01:55:28.448Z,99766.00
2023-02-06T01:57:55.281Z,99770.25
2023-02-06T02:00:22.103Z,99763.41
2023-02-06T02:02:49.321Z,99769.31
2023-02-06T02:05:19.168Z,99768.44
2023-02-06T02:08:03.356Z,99768.41
2023-02-06T02:10:31.714Z,99765.84
2023-02-06T02:12:59.005Z,99768.34
2023-02-06T02:15:46.232Z,99758.97
2023-02-06T02:18:31.567Z,99758.94
2023-02-06T02:21:29.112Z,99762.31
2023-02-06T02:24:14.740Z,99767.41
2023-02-06T02:26:59.896Z,99775.91
2023-02-06T02:30:16.657Z,99758.91
2023-02-06T02:33:14.043Z,99753.81
2023-02-06T02:36:20.489Z,99746.16
2023-02-06T02:39:02.651Z,99746.94
2023-02-06T02:42:04.296Z,99751.16
2023-02-06T02:44:45.806Z,99747.75
2023-02-06T02:47:18.507Z,99748.59
2023-02-06T02:49:46.829Z,99744.31
2023-02-06T02:52:14.122Z,99740.88
2023-02-06T02:54:40.891Z,99745.94
2023-02-06T02:57:22.590Z,99746.78
2023-02-06T02:59:51.739Z,99730.63
2023-02-06T03:02:50.529Z,99744.19
2023-02-06T03:05:21.933Z,99741.63
2023-02-06T03:08:07.255Z,99741.63
2023-02-06T03:11:06.904Z,99759.44
2023-02-06T03:14:08.808Z,99762.91
2023-02-06T03:16:59.466Z,99753.56
2023-02-06T03:19:45.558Z,99756.03
2023-02-06T03:22:14.753Z,99747.50
2023-02-06T03:24:41.564Z,99739.81
2023-02-06T03:27:15.675Z,99741.50
2023-02-06T03:29:46.076Z,99733.03
2023-02-06T03:32:27.163Z,99739.75
2023-02-06T03:35:13.287Z,99732.13
2023-02-06T03:37:40.272Z,99726.97
2023-02-06T03:40:09.088Z,99723.66
2023-02-06T03:42:42.302Z,99729.53
2023-02-06T03:45:24.346Z,99732.13
2023-02-06T03:47:55.020Z,99738.94
2023-02-06T03:50:24.460Z,99722.84
2023-02-06T03:52:52.698Z,99739.78
2023-02-06T03:55:23.446Z,99755.88
2023-02-06T03:58:03.426Z,99764.34
2023-02-06T04:00:32.264Z,99758.44
2023-02-06T04:03:01.833Z,99768.63
2023-02-06T04:05:28.684Z,99772.00
2023-02-06T04:07:56.619Z,99775.47
2023-02-06T04:10:26.190Z,99771.25
2023-02-06T04:12:53.878Z,99769.59
2023-02-06T04:15:20.924Z,99770.44
2023-02-06T04:17:59.587Z,99756.91
2023-02-06T04:20:27.705Z,99751.03
2023-02-06T04:22:54.409Z,99749.34
2023-02-06T04:25:21.288Z,99741.75
2023-02-06T04:27:48.261Z,99747.69
2023-02-06T04:30:15.645Z,99746.00
2023-02-06T04:32:42.475Z,99754.53
2023-02-06T04:35:09.554Z,99752.00
2023-02-06T04:37:37.529Z,99763.91
2023-02-06T04:40:04.953Z,99761.44
2023-02-06T04:42:31.659Z,99759.75
2023-02-06T04:44:58.350Z,99764.94
2023-02-06T04:47:25.329Z,99754.81
2023-02-06T04:49:52.044Z,99754.03
2023-02-06T04:52:18.780Z,99753.97
2023-02-06T04:54:45.498Z,99763.31
2023-02-06T04:57:12.207Z,99752.34
2023-02-06T04:59:38.921Z,99743.91
2023-02-06T05:02:05.737Z,99743.91
2023-02-06T05:04:32.533Z,99744.81
2023-02-06T05:06:59.244Z,99736.31
2023-02-06T05:09:25.988Z,99743.13
2023-02-06T05:11:52.683Z,99749.94
2023-02-06T05:14:19.507Z,99745.75
2023-02-06T05:16:46.551Z,99738.97
2023-02-06T05:19:13.444Z,99735.66
2023-02-06T05:21:40.291Z,99732.25
2023-02-06T05:24:07.093Z,99725.44
2023-02-06T05:26:33.841Z,99718.69
2023-02-06T05:29:00.602Z,99729.72
2023-02-06T05:31:27.424Z,99732.28
2023-02-06T05:33:54.981Z,99722.97
2023-02-06T05:36:22.815Z,99717.06
2023-02-06T05:38:49.862Z,99720.47
2023-02-06T05:41:17.382Z,99735.75
2023-02-06T05:43:44.336Z,99733.25
2023-02-06T05:46:12.779Z,99747.69
2023-02-06T05:48:42.139Z,99762.16
2023-02-06T05:51:09.157Z,99761.31
2023-02-06T05:53:35.929Z,99763.03
2023-02-06T05:56:02.694Z,99760.50
2023-02-06T05:58:29.411Z,99752.88
2023-02-06T06:00:56.353Z,99761.34
2023-02-06T06:03:23.081Z,99768.16
2023-02-06T06:05:50.586Z,99772.44
2023-02-06T06:08:17.330Z,99774.16
2023-02-06T06:10:44.099Z,99769.06
2023-02-06T06:13:12.009Z,99759.72
2023-02-06T06:15:38.828Z,99759.78
2023-02-06T06:18:05.653Z,99760.63
2023-02-06T06:20:32.409Z,99761.47
2023-02-06T06:22:59.103Z,99763.19
2023-02-06T06:25:26.035Z,99765.72
2023-02-06T06:27:52.997Z,99772.53
2023-02-06T06:30:19.750Z,99759.78
2023-02-06T06:32:46.468Z,99753.84
2023-02-06T06:35:13.388Z,99765.78
2023-02-06T06:37:40.317Z,99769.19
2023-02-06T06:40:07.934Z,99763.22
2023-02-06T06:42:34.672Z,99755.63
2023-02-06T06:45:01.497Z,99727.59
2023-02-06T06:47:28.423Z,99745.38
2023-02-06T06:49:55.179Z,99755.59
2023-02-06T06:52:25.244Z,99770.03
2023-02-06T06:54:53.504Z,99753.88
2023-02-06T06:57:22.486Z,99746.25
2023-02-06T06:59:50.148Z,99747.97
2023-02-06T07:02:17.484Z,99751.38
2023-02-06T07:04:44.314Z,99746.28
2023-02-06T07:07:11.029Z,99734.38
2023-02-06T07:09:37.742Z,99736.94
2023-02-06T07:12:05.264Z,99737.81
2023-02-06T07:14:31.994Z,99749.72
2023-02-06T07:16:59.824Z,99747.19
2023-02-06T07:19:26.550Z,99749.75
2023-02-06T07:21:53.339Z,99740.38
2023-02-06T07:24:20.094Z,99740.41
2023-02-06T07:26:46.901Z,99737.88
2023-02-06T07:29:13.615Z,99743.81
2023-02-06T07:31:40.423Z,99745.50
2023-02-06T07:34:07.187Z,99730.19
2023-02-06T07:36:33.979Z,99724.28
2023-02-06T07:39:03.814Z,99725.13
2023-02-06T07:41:30.668Z,99725.97
2023-02-06T07:43:57.420Z,99731.91
2023-02-06T07:46:24.219Z,99728.53
2023-02-06T07:48:51.127Z,99738.75
2023-02-06T07:51:17.900Z,99743.00
2023-02-06T07:53:44.754Z,99739.59
2023-02-06T07:56:20.806Z,99744.72
2023-02-06T07:58:54.795Z,99751.50
2023-02-06T08:01:23.233Z,99754.06
2023-02-06T08:03:52.033Z,99750.66
2023-02-06T08:06:23.260Z,99760.84
2023-02-06T08:08:53.948Z,99757.47
2023-02-06T08:11:21.817Z,99756.59
2023-02-06T08:13:48.596Z,99765.09
2023-02-06T08:16:22.667Z,99765.97
2023-02-06T08:18:49.929Z,99763.41
2023-02-06T08:21:21.134Z,99764.25
2023-02-06T08:23:54.885Z,99761.72
2023-02-06T08:26:22.635Z,99762.53
2023-02-06T08:28:51.480Z,99758.28
2023-02-06T08:31:33.441Z,99759.13
2023-02-06T08:34:00.841Z,99762.56
2023-02-06T08:36:31.420Z,99759.13
2023-02-06T08:38:59.695Z,99752.31
2023-02-06T08:41:30.812Z,99754.84
2023-02-06T08:44:01.671Z,99747.19
2023-02-06T08:46:32.062Z,99739.53
2023-02-06T08:49:04.718Z,99745.47
2023-02-06T08:51:34.259Z,99742.09
2023-02-06T08:54:07.968Z,99735.22
2023-02-06T08:56:36.602Z,99735.19
2023-02-06T08:59:05.381Z,99735.19
2023-02-06T09:01:35.073Z,99742.81
2023-02-06T09:04:06.715Z,99741.06
2023-02-06T09:06:37.851Z,99728.25
2023-02-06T09:09:05.882Z,99729.09
2023-02-06T09:11:33.301Z,99728.25
2023-02-06T09:14:02.901Z,99727.38
2023-02-06T09:16:33.130Z,99713.63
2023-02-06T09:19:01.500Z,99708.41
2023-02-06T09:21:34.180Z,99694.63
2023-02-06T09:24:05.220Z,99691.97
2023-02-06T09:26:53.525Z,99691.81
2023-02-06T09:29:24.045Z,99685.72
2023-02-06T09:31:50.848Z,99682.28
2023-02-06T09:34:17.594Z,99691.66
2023-02-06T09:36:44.753Z,99683.25
2023-02-06T09:39:11.561Z,99681.56
2023-02-06T09:41:53.103Z,99677.34
2023-02-06T09:44:35.953Z,99690.09
2023-02-06T09:47:28.274Z,99682.31
2023-02-06T09:50:07.405Z,99671.13
2023-02-06T09:53:24.346Z,99673.59
2023-02-06T09:56:12.528Z,99655.75
2023-02-06T09:59:18.447Z,99635.75
2023-02-06T10:02:13.970Z,99641.94
2023-02-06T10:05:17.500Z,99641.94
2023-02-06T10:07:58.994Z,99649.88
2023-02-06T10:10:40.640Z,99638.72
2023-02-06T10:13:40.527Z,99638.94
2023-02-06T10:16:13.563Z,99637.53
2023-02-06T10:18:49.767Z,99619.56
2023-02-06T10:21:32.744Z,99629.03
2023-02-06T10:24:18.559Z,99631.78
2023-02-06T10:26:47.944Z,99625.19
2023-02-06T10:29:30.746Z,99622.78
2023-02-06T10:32:32.199Z,99617.63
2023-02-06T10:35:31.986Z,99609.06
2023-02-06T10:38:33.591Z,99589.41
2023-02-06T10:41:41.689Z,99591.09
2023-02-06T10:44:35.106Z,99589.31
2023-02-06T10:47:04.750Z,99591.81
2023-02-06T10:49:44.589Z,99589.97
2023-02-06T10:52:35.955Z,99578.84
2023-02-06T10:55:23.157Z,99575.38
2023-02-06T10:58:14.330Z,99577.88
2023-02-06T11:00:43.208Z,99565.06
2023-02-06T11:03:18.660Z,99566.88
2023-02-06T11:05:45.823Z,99561.59
2023-02-06T11:08:23.207Z,99564.03
2023-02-06T11:10:50.782Z,99566.47
2023-02-06T11:13:33.432Z,99569.75
2023-02-06T11:16:16.324Z,99566.31
2023-02-06T11:18:49.548Z,99553.44
2023-02-06T11:22:07.392Z,99563.59
2023-02-06T11:24:35.742Z,99567.78
2023-02-06T11:27:16.063Z,99554.03
2023-02-06T11:29:52.079Z,99550.56
2023-02-06T11:32:37.573Z,99549.75
2023-02-06T11:35:27.737Z,99536.88
2023-02-06T11:38:06.045Z,99531.63
2023-02-06T11:40:33.236Z,99537.59
2023-02-06T11:43:23.934Z,99534.84
2023-02-06T11:46:19.963Z,99534.75
2023-02-06T11:49:02.676Z,99541.59
2023-02-06T11:52:00.154Z,99548.53
2023-02-06T11:54:35.126Z,99533.22
2023-02-06T11:57:19.386Z,99531.69
2023-02-06T11:59:54.224Z,99539.59
2023-02-06T12:02:35.539Z,99545.84
2023-02-06T12:05:16.865Z,99548.50
2023-02-06T12:07:54.630Z,99544.28
2023-02-06T12:10:23.858Z,99535.78
2023-02-06T12:12:58.369Z,99517.00
2023-02-06T12:15:48.125Z,99528.97
2023-02-06T12:18:26.016Z,99511.94
2023-02-06T12:21:16.493Z,99500.81
2023-02-06T12:23:54.580Z,99496.56
2023-02-06T12:26:27.059Z,99494.03
2023-02-06T12:29:09.623Z,99483.69
2023-02-06T12:31:57.281Z,99485.38
2023-02-06T12:34:43.669Z,99492.19
2023-02-06T12:37:21.543Z,99485.34
2023-02-06T12:39:51.931Z,99495.63
2023-02-06T12:42:55.137Z,99494.84
2023-02-06T12:45:46.032Z,99504.97
2023-02-06T12:48:42.094Z,99495.50
2023-02-06T12:51:42.042Z,99494.44
2023-02-06T12:54:23.404Z,99493.41
2023-02-06T12:57:05.590Z,99489.06
2023-02-06T13:00:02.466Z,99484.75
2023-02-06T13:02:56.998Z,99493.34
2023-02-06T13:06:12.335Z,99489.88
2023-02-06T13:08:56.387Z,99471.94
2023-02-06T13:11:29.923Z,99465.16
2023-02-06T13:14:16.744Z,99466.75
2023-02-06T13:16:58.842Z,99470.19
2023-02-06T13:19:49.252Z,99474.41
2023-02-06T13:22:51.857Z,99486.28
2023-02-06T13:25:30.740Z,99498.13
2023-02-06T13:28:01.089Z,99496.31
2023-02-06T13:30:30.863Z,99486.88
2023-02-06T13:33:24.664Z,99492.78
2023-02-06T13:35:59.344Z,99482.44
2023-02-06T13:38:37.536Z,99482.28
2023-02-06T13:41:29.845Z,99470.97
2023-02-06T13:44:18.723Z,99473.38
2023-02-06T13:47:39.024Z,99471.44
2023-02-06T13:50:30.371Z,99473.78
2023-02-06T13:53:25.183Z,99477.00
2023-02-06T13:56:22.558Z,99476.69
2023-02-06T13:58:55.793Z,99468.31
2023-02-06T14:01:29.870Z,99461.56
2023-02-06T14:03:59.659Z,99458.38
2023-02-06T14:07:02.293Z,99451.59
2023-02-06T14:10:08.470Z,99459.09
2023-02-06T14:12:44.514Z,99462.81
2023-02-06T14:15:49.411Z,99458.28
2023-02-06T14:18:43.310Z,99450.41
2023-02-06T14:21:43.670Z,99461.22
2023-02-06T14:24:48.119Z,99458.22
2023-02-06T14:27:33.262Z,99461.34
2023-02-06T14:30:36.329Z,99460.91
2023-02-06T14:33:27.615Z,99464.56
2023-02-06T14:36:30.860Z,99464.72
2023-02-06T14:39:41.922Z,99463.22
2023-02-06T14:42:25.227Z,99451.41
2023-02-06T14:45:08.798Z,99465.28
2023-02-06T14:47:43.022Z,99472.34
2023-02-06T14:50:35.575Z,99457.19
2023-02-06T14:53:23.208Z,99461.69
2023-02-06T14:55:50.296Z,99454.16
2023-02-06T14:58:30.494Z,99450.81
2023-02-06T15:01:13.510Z,99461.16
2023-02-06T15:03:41.647Z,99460.41
2023-02-06T15:06:30.417Z,99457.91
2023-02-06T15:08:57.688Z,99447.72
2023-02-06T15:11:32.299Z,99452.09
2023-02-06T15:14:22.800Z,99451.34
2023-02-06T15:16:50.945Z,99455.75
2023-02-06T15:19:25.315Z,99454.13
2023-02-06T15:22:14.880Z,99461.94
2023-02-06T15:25:28.120Z,99458.53
2023-02-06T15:28:12.818Z,99463.75
2023-02-06T15:30:40.044Z,99468.88
2023-02-06T15:33:14.769Z,99464.63
2023-02-06T15:35:49.453Z,99467.22
2023-02-06T15:38:16.962Z,99467.25
2023-02-06T15:41:07.398Z,99463.03
2023-02-06T15:43:35.722Z,99470.75
2023-02-06T15:46:05.322Z,99455.41
2023-02-06T15:48:43.502Z,99458.91
2023-02-06T15:51:24.597Z,99473.47
2023-02-06T15:54:07.232Z,99466.75
2023-02-06T15:56:41.132Z,99459.97
2023-02-06T15:59:20.745Z,99458.28
2023-02-06T16:01:48.740Z,99462.66
2023-02-06T16:04:37.752Z,99460.13
2023-02-06T16:07:19.743Z,99461.88
2023-02-06T16:10:21.736Z,99467.91
2023-02-06T16:12:49.731Z,99468.81
2023-02-06T16:15:34.902Z,99473.94
2023-02-06T16:18:26.733Z,99479.09
2023-02-06T16:21:32.593Z,99483.44
2023-02-06T16:24:03.103Z,99485.19
2023-02-06T16:26:43.304Z,99478.38
2023-02-06T16:29:10.081Z,99485.25
2023-02-06T16:31:42.864Z,99481.81
2023-02-06T16:34:41.940Z,99477.56
2023-02-06T16:37:18.300Z,99487.00
2023-02-06T16:39:46.249Z,99490.47
2023-02-06T16:42:18.981Z,99493.91
2023-02-06T16:44:50.429Z,99502.47
2023-02-06T16:47:21.003Z,99506.78
2023-02-06T16:49:48.232Z,99509.34
2023-02-06T16:52:25.724Z,99509.41
2023-02-06T16:54:55.582Z,99510.28
2023-02-06T16:57:32.054Z,99512.00
2023-02-06T16:59:59.208Z,99502.69
2023-02-06T17:02:27.450Z,99498.47
2023-02-06T17:04:55.205Z,99509.59
2023-02-06T17:07:26.208Z,99507.06
2023-02-06T17:09:56.676Z,99509.69
2023-02-06T17:12:23.725Z,99508.00
2023-02-06T17:14:50.734Z,99520.88
2023-02-06T17:17:20.818Z,99511.50
2023-02-06T17:19:49.513Z,99526.03
2023-02-06T17:22:16.484Z,99524.31
2023-02-06T17:24:43.691Z,99520.06
2023-02-06T17:27:21.406Z,99508.06
2023-02-06T17:29:49.911Z,99511.50
2023-02-06T17:32:21.918Z,99523.47
2023-02-06T17:34:51.335Z,99525.19
2023-02-06T17:37:20.802Z,99520.94
2023-02-06T17:39:50.356Z,99527.78
2023-02-06T17:42:17.333Z,99512.41
2023-02-06T17:44:44.800Z,99515.84
2023-02-06T17:47:11.787Z,99533.78
2023-02-06T17:49:38.784Z,99527.81
2023-02-06T17:52:06.213Z,99531.19
2023-02-06T17:54:33.232Z,99538.00
2023-02-06T17:56:59.978Z,99544.00
2023-02-06T17:59:26.743Z,99531.16
2023-02-06T18:01:53.689Z,99543.97
2023-02-06T18:04:21.251Z,99542.22
2023-02-06T18:06:48.324Z,99554.19
2023-02-06T18:09:15.175Z,99551.63
2023-02-06T18:11:41.889Z,99549.03
2023-02-06T18:14:08.592Z,99544.78
2023-02-06T18:16:36.235Z,99549.91
2023-02-06T18:19:03.039Z,99551.66
2023-02-06T18:21:31.013Z,99551.69
2023-02-06T18:23:58.566Z,99549.09
2023-02-06T18:26:25.734Z,99549.97
2023-02-06T18:28:52.619Z,99544.84
2023-02-06T18:31:35.347Z,99550.91
2023-02-06T18:34:07.751Z,99542.38
2023-02-06T18:36:36.223Z,99554.38
2023-02-06T18:39:05.496Z,99552.66
2023-02-06T18:41:50.681Z,99561.22
2023-02-06T18:44:17.442Z,99578.28
2023-02-06T18:46:44.227Z,99578.28
2023-02-06T18:49:11.016Z,99584.25
2023-02-06T18:51:37.784Z,99593.66
2023-02-06T18:54:05.026Z,99588.59
2023-02-06T18:56:32.284Z,99590.28
2023-02-06T18:58:59.596Z,99601.44
2023-02-06T19:01:26.943Z,99606.53
2023-02-06T19:03:54.364Z,99616.03
2023-02-06T19:06:31.781Z,99613.47
2023-02-06T19:08:59.533Z,99622.06
2023-02-06T19:11:27.118Z,99612.69
2023-02-06T19:13:54.601Z,99602.44
2023-02-06T19:16:22.239Z,99611.84
2023-02-06T19:18:49.459Z,99612.81
2023-02-06T19:21:20.487Z,99610.31
2023-02-06T19:23:56.952Z,99623.25
2023-02-06T19:26:24.977Z,99624.94
2023-02-06T19:28:52.781Z,99614.72
2023-02-06T19:31:23.865Z,99624.97
2023-02-06T19:33:55.082Z,99633.56
2023-02-06T19:36:24.131Z,99631.91
2023-02-06T19:38:56.844Z,99640.44
2023-02-06T19:41:28.594Z,99632.84
2023-02-06T19:43:57.323Z,99623.50
2023-02-06T19:46:27.276Z,99625.22
2023-02-06T19:48:55.194Z,99629.53
2023-02-06T19:51:34.604Z,99641.53
2023-02-06T19:54:01.674Z,99643.28
2023-02-06T19:56:38.129Z,99645.06
2023-02-06T19:59:17.733Z,99651.03
2023-02-06T20:01:56.292Z,99631.47
2023-02-06T20:04:34.531Z,99634.03
2023-02-06T20:07:02.683Z,99634.00
2023-02-06T20:09:30.172Z,99626.31
2023-02-06T20:11:58.015Z,99633.09
2023-02-06T20:14:26.795Z,99623.75
2023-02-06T20:16:53.682Z,99618.66
2023-02-06T20:19:25.719Z,99621.28
2023-02-06T20:21:55.923Z,99629.03
2023-02-06T20:24:30.347Z,99630.78
2023-02-06T20:27:01.856Z,99649.63
2023-02-06T20:29:35.394Z,99644.53
2023-02-06T20:32:04.559Z,99648.84
2023-02-06T20:34:31.337Z,99638.66
2023-02-06T20:36:59.225Z,99637.00
2023-02-06T20:39:26.680Z,99637.03
2023-02-06T20:41:54.014Z,99631.09
2023-02-06T20:44:21.442Z,99629.41
2023-02-06T20:46:48.381Z,99620.94
2023-02-06T20:49:24.890Z,99634.56
2023-02-06T20:51:52.389Z,99636.28
2023-02-06T20:54:20.934Z,99644.84
2023-02-06T20:56:48.612Z,99648.22
2023-02-06T20:59:18.629Z,99645.69
2023-02-06T21:01:46.166Z,99650.00
2023-02-06T21:04:15.215Z,99643.19
2023-02-06T21:06:43.048Z,99646.63
2023-02-06T21:09:11.199Z,99637.28
2023-02-06T21:11:44.213Z,99644.13
2023-02-06T21:14:12.182Z,99632.22
2023-02-06T21:16:40.381Z,99633.09
2023-02-06T21:19:10.811Z,99639.91
2023-02-06T21:21:38.327Z,99635.69
2023-02-06T21:24:06.472Z,99662.06
2023-02-06T21:26:33.545Z,99668.88
2023-02-06T21:29:02.338Z,99674.88
2023-02-06T21:31:36.021Z,99671.47
2023-02-06T21:34:16.632Z,99671.47
2023-02-06T21:36:44.311Z,99678.31
2023-02-06T21:39:21.658Z,99691.09
2023-02-06T21:41:53.597Z,99688.53
2023-02-06T21:44:23.819Z,99681.72
2023-02-06T21:46:51.443Z,99692.81
2023-02-06T21:49:19.185Z,99682.56
2023-02-06T21:51:45.887Z,99679.19
2023-02-06T21:54:12.644Z,99688.53
2023-02-06T21:56:39.442Z,99696.19
2023-02-06T21:59:07.890Z,99708.97
2023-02-06T22:01:34.746Z,99700.44
2023-02-06T22:04:03.742Z,99703.00
2023-02-06T22:06:31.979Z,99699.63
2023-02-06T22:09:05.074Z,99699.63
2023-02-06T22:11:33.087Z,99701.31
2023-02-06T22:14:04.373Z,99709.84
2023-02-06T22:16:31.204Z,99710.66
2023-02-06T22:18:58.539Z,99708.13
2023-02-06T22:21:28.662Z,99708.94
2023-02-06T22:24:06.343Z,99714.91
2023-02-06T22:26:36.813Z,99720.00
2023-02-06T22:29:06.200Z,99726.81
2023-02-06T22:31:35.189Z,99727.66
2023-02-06T22:34:03.208Z,99738.72
2023-02-06T22:36:33.099Z,99749.75
2023-02-06T22:39:06.383Z,99742.94
2023-02-06T22:41:34.218Z,99741.25
2023-02-06T22:44:01.353Z,99743.78
2023-02-06T22:46:33.275Z,99748.91
2023-02-06T22:49:00.955Z,99755.69
2023-02-06T22:51:28.597Z,99742.94
2023-02-06T22:53:56.489Z,99750.59
2023-02-06T22:56:38.059Z,99756.53
2023-02-06T22:59:14.345Z,99754.84
2023-02-06T23:01:47.216Z,99754.00
2023-02-06T23:04:21.312Z,99742.09
2023-02-06T23:06:49.024Z,99759.06
2023-02-06T23:09:25.487Z,99770.13
2023-02-06T23:11:52.896Z,99775.22
2023-02-06T23:14:20.232Z,99787.13
2023-02-06T23:16:47.825Z,99803.25
2023-02-06T23:19:16.268Z,99792.22
2023-02-06T23:21:47.344Z,99799.00
2023-02-06T23:24:15.499Z,99786.25
2023-02-06T23:26:45.863Z,99787.91
2023-02-06T23:29:17.052Z,99791.31
2023-02-06T23:31:46.421Z,99793.88
2023-02-06T23:34:14.556Z,99784.50
2023-02-06T23:36:42.377Z,99810.84
2023-02-06T23:39:09.230Z,99792.13
2023-02-06T23:41:35.953Z,99790.41
2023-02-06T23:44:06.204Z,99787.88
2023-02-06T23:46:36.379Z,99765.78
2023-02-06T23:49:03.991Z,99792.13
2023-02-06T23:51:31.980Z,99808.25
2023-02-06T23:53:59.032Z,99787.84
2023-02-06T23:56:29.444Z,99781.03
2023-02-06T23:58:59.267Z,99799.72
